Time;durP1;ratioP1;P1;durP2;ratioP2;P2;SDS_P1;SDS_P2;PMS_P1;PMS_P2;Temp;Humidity;BMP_temperature;BMP_pressure;BME280_temperature;BME280_humidity;BME280_pressure;Samples;Min_cycle;Max_cycle;Signal;HPM_P1;HPM_P2
2022/03/17 00:02:04;;;;;;;18.03;16.50;;;;;;;22.52;28.49;95628.47;6181159;28;102753;-62
2022/03/17 00:05:11;;;;;;;17.70;16.20;;;;;;;22.53;28.60;95626.63;6181887;28;103163;-62
2022/03/17 00:08:14;;;;;;;16.93;15.63;;;;;;;22.54;28.67;95630.06;6180522;28;102919;-63
2022/03/17 00:11:16;;;;;;;17.57;16.17;;;;;;;22.51;28.56;95629.56;6176594;28;104281;-62
2022/03/17 00:14:18;;;;;;;17.27;15.97;;;;;;;22.52;28.67;95633.81;6181088;28;103093;-61
2022/03/17 00:17:20;;;;;;;16.43;15.13;;;;;;;22.54;29.07;95643.38;6182033;28;102804;-62
2022/03/17 00:20:23;;;;;;;17.50;16.10;;;;;;;22.54;29.04;95633.53;6180056;28;103334;-65
2022/03/17 00:23:25;;;;;;;18.00;16.50;;;;;;;22.54;28.68;95641.50;6183271;28;103769;-63
2022/03/17 00:26:26;;;;;;;16.93;15.67;;;;;;;22.54;28.67;95638.06;6186732;28;102970;-61
2022/03/17 00:29:28;;;;;;;18.37;16.77;;;;;;;22.52;28.41;95639.13;6180990;28;102709;-66
2022/03/17 00:32:30;;;;;;;19.00;17.50;;;;;;;22.52;29.17;95633.81;6176491;28;103939;-63
2022/03/17 00:35:35;;;;;;;16.43;15.23;;;;;;;22.54;28.62;95635.41;6180778;28;102718;-62
2022/03/17 00:38:37;;;;;;;17.93;16.53;;;;;;;22.54;28.47;95638.84;6181063;28;103785;-63
2022/03/17 00:41:40;;;;;;;17.40;16.00;;;;;;;22.55;28.72;95636.97;6181469;28;102726;-63
2022/03/17 00:44:42;;;;;;;17.73;16.33;;;;;;;22.53;28.54;95645.25;6175733;28;102796;-64
2022/03/17 00:47:44;;;;;;;17.27;15.87;;;;;;;22.54;28.39;95644.16;6180209;28;102816;-64
2022/03/17 00:50:46;;;;;;;17.37;15.97;;;;;;;22.53;28.74;95642.59;6180914;28;102728;-62
2022/03/17 00:53:47;;;;;;;17.80;16.30;;;;;;;22.52;28.65;95641.00;6176047;28;102924;-63
2022/03/17 00:56:49;;;;;;;17.67;16.17;;;;;;;22.54;28.49;95656.69;6180811;28;102739;-63
2022/03/17 00:59:51;;;;;;;18.10;16.70;;;;;;;22.54;28.63;95664.69;6180925;28;102817;-66
2022/03/17 01:02:55;;;;;;;17.30;16.00;;;;;;;22.56;28.86;95673.19;6181149;28;102862;-70
2022/03/17 01:05:59;;;;;;;17.97;16.47;;;;;;;22.56;28.36;95671.31;6175807;28;103633;-71
2022/03/17 01:09:01;;;;;;;17.83;16.33;;;;;;;22.55;28.40;95675.03;6180110;28;104351;-72
2022/03/17 01:12:03;;;;;;;16.37;15.07;;;;;;;22.56;28.53;95670.50;6184802;28;102972;-71
2022/03/17 01:15:06;;;;;;;16.10;14.87;;;;;;;22.54;28.63;95673.47;6184670;28;103599;-66
2022/03/17 01:18:07;;;;;;;16.57;15.10;;;;;;;22.56;28.49;95675.84;6179929;28;102960;-72
2022/03/17 01:21:09;;;;;;;16.63;15.33;;;;;;;22.56;28.74;95678.50;6158477;28;102991;-69
2022/03/17 01:24:11;;;;;;;16.87;15.50;;;;;;;22.56;28.47;95686.50;6187018;28;102821;-70
2022/03/17 01:27:13;;;;;;;17.40;16.00;;;;;;;22.55;28.56;95682.25;6178155;28;103064;-69
2022/03/17 01:30:15;;;;;;;15.97;14.77;;;;;;;22.55;28.36;95684.91;6184900;28;103297;-69
2022/03/17 01:33:17;;;;;;;16.67;15.27;;;;;;;22.56;28.72;95686.50;6161511;28;102874;-69
2022/03/17 01:36:19;;;;;;;17.07;15.57;;;;;;;22.55;28.56;95684.91;6184724;28;102710;-69
2022/03/17 01:39:20;;;;;;;16.80;15.50;;;;;;;22.55;28.51;95695.56;6178865;28;103779;-69
2022/03/17 01:42:22;;;;;;;15.87;14.57;;;;;;;22.54;28.47;95693.97;6165311;28;102837;-69
2022/03/17 01:45:26;;;;;;;15.80;14.60;;;;;;;22.55;28.89;95695.56;6183659;28;102781;-71
2022/03/17 01:48:28;;;;;;;15.77;14.57;;;;;;;22.54;28.58;95697.44;6155256;28;103081;-71
2022/03/17 01:51:29;;;;;;;16.33;15.03;;;;;;;22.52;28.70;95703.03;6132270;28;102860;-68
2022/03/17 01:54:33;;;;;;;16.97;15.67;;;;;;;22.55;28.34;95700.88;6148120;28;103028;-70
2022/03/17 01:57:39;;;;;;;15.37;14.17;;;;;;;22.52;28.16;95713.69;6159236;28;102688;-66
2022/03/17 02:00:42;;;;;;;16.77;15.37;;;;;;;22.53;28.66;95714.50;6152734;28;103248;-67
2022/03/17 02:03:47;;;;;;;15.40;14.20;;;;;;;22.52;28.43;95724.34;6150699;28;103102;-70
2022/03/17 02:06:49;;;;;;;16.30;15.00;;;;;;;22.53;28.42;95719.81;6146155;28;102726;-71
2022/03/17 02:09:51;;;;;;;16.20;14.90;;;;;;;22.53;28.55;95714.50;6135158;28;102777;-71
2022/03/17 02:13:11;;;;;;;14.50;13.40;;;;;;;22.54;28.20;95720.59;6145753;28;102886;-71
2022/03/17 02:16:13;;;;;;;15.27;14.07;;;;;;;22.54;28.39;95709.97;6152434;28;102812;-70
2022/03/17 02:19:15;;;;;;;13.90;12.80;;;;;;;22.55;28.34;95722.19;6143061;28;102782;-70
2022/03/17 02:22:21;;;;;;;15.20;14.00;;;;;;;22.54;28.32;95725.94;6148190;28;103287;-70
2022/03/17 02:25:33;;;;;;;14.70;13.60;;;;;;;22.52;28.42;95727.00;6152294;28;102780;-70
2022/03/17 02:28:35;;;;;;;14.57;13.47;;;;;;;22.51;28.56;95724.63;6123489;28;103281;-70
2022/03/17 02:31:38;;;;;;;15.33;14.13;;;;;;;22.54;28.36;95721.41;6146077;28;102835;-70
2022/03/17 02:34:40;;;;;;;14.90;13.70;;;;;;;22.54;28.16;95717.94;6144256;28;103220;-71
2022/03/17 02:37:41;;;;;;;15.33;14.17;;;;;;;22.54;28.39;95712.63;6158948;28;102794;-68
2022/03/17 02:40:46;;;;;;;13.30;12.30;;;;;;;22.55;28.42;95717.66;6144738;28;102857;-68
2022/03/17 02:43:52;;;;;;;14.40;13.30;;;;;;;22.54;28.82;95721.41;6117320;28;103802;-69
2022/03/17 02:46:54;;;;;;;13.93;12.90;;;;;;;22.54;28.09;95717.94;6162166;28;102856;-71
2022/03/17 02:49:56;;;;;;;13.60;12.60;;;;;;;22.52;28.48;95721.69;6204313;28;102838;-72
2022/03/17 02:53:05;;;;;;;13.17;12.17;;;;;;;22.55;28.34;95727.50;6195345;28;103132;-70
2022/03/17 02:56:06;;;;;;;12.53;11.63;;;;;;;22.55;28.42;95735.50;6197981;28;103010;-70
2022/03/17 02:59:08;;;;;;;13.80;12.60;;;;;;;22.52;28.43;95737.66;6189822;28;103028;-71
2022/03/17 03:02:10;;;;;;;13.10;12.20;;;;;;;22.54;28.47;95736.59;6204574;28;103049;-67
2022/03/17 03:05:12;;;;;;;13.30;12.30;;;;;;;22.51;28.55;95741.41;6165318;28;103411;-66
2022/03/17 03:08:15;;;;;;;12.27;11.37;;;;;;;22.53;28.32;95746.44;6178714;28;102880;-68
2022/03/17 03:11:17;;;;;;;13.50;12.50;;;;;;;22.53;28.41;95741.13;6176281;28;102811;-69
2022/03/17 03:14:20;;;;;;;13.33;12.33;;;;;;;22.55;28.28;95751.47;6182515;28;102882;-70
2022/03/17 03:17:22;;;;;;;12.77;11.87;;;;;;;22.52;28.29;95753.63;6182969;28;102818;-66
2022/03/17 03:20:23;;;;;;;12.70;11.73;;;;;;;22.54;28.53;95758.69;6187338;28;102991;-71
2022/03/17 03:23:25;;;;;;;12.57;11.67;;;;;;;22.55;28.10;95760.25;6182541;28;102726;-71
2022/03/17 03:26:27;;;;;;;12.37;11.47;;;;;;;22.55;28.32;95754.16;6181461;28;103225;-71
2022/03/17 03:29:29;;;;;;;11.33;10.50;;;;;;;22.53;28.28;95751.78;6185225;28;103971;-70
2022/03/17 03:32:31;;;;;;;12.50;11.60;;;;;;;22.52;28.18;95756.31;6202493;28;103519;-70
2022/03/17 03:38:55;;;;;;;12.60;11.50;;;;;;;22.52;28.39;95764.28;6178033;28;102741;-73
2022/03/17 03:41:57;;;;;;;13.07;12.07;;;;;;;22.54;28.35;95763.22;6180747;28;103035;-71
2022/03/17 03:44:59;;;;;;;12.17;11.20;;;;;;;22.55;28.41;95767.47;6163961;28;103197;-70
2022/03/17 03:48:00;;;;;;;12.97;11.97;;;;;;;22.54;27.94;95764.00;6180391;28;102738;-70
2022/03/17 03:51:02;;;;;;;12.80;11.83;;;;;;;22.55;28.02;95764.81;6151583;28;102883;-72
2022/03/17 03:54:17;;;;;;;12.77;11.80;;;;;;;22.55;28.40;95767.47;6182063;28;102774;-70
2022/03/17 03:57:19;;;;;;;12.53;11.63;;;;;;;22.55;28.31;95770.13;6181882;28;102711;-70
2022/03/17 04:00:32;;;;;;;12.17;11.27;;;;;;;22.55;28.37;95772.78;6181593;28;102743;-70
2022/03/17 04:03:34;;;;;;;12.33;11.33;;;;;;;22.55;28.04;95780.78;6179687;28;103152;-70
2022/03/17 04:06:46;;;;;;;12.57;11.67;;;;;;;22.54;28.38;95795.16;6161812;28;103107;-72
2022/03/17 04:09:48;;;;;;;11.23;10.43;;;;;;;22.54;28.35;95800.50;6181240;28;102755;-73
2022/03/17 04:12:50;;;;;;;11.20;10.30;;;;;;;22.54;28.00;95803.94;6176704;28;102906;-72
2022/03/17 04:15:52;;;;;;;11.63;10.73;;;;;;;22.56;28.44;95809.78;6181980;28;103028;-67
2022/03/17 04:18:54;;;;;;;11.60;10.70;;;;;;;22.55;27.95;95808.19;6180495;28;102760;-74
2022/03/17 04:21:56;;;;;;;11.10;10.30;;;;;;;22.55;28.49;95818.06;6180796;28;103810;-74
2022/03/17 04:24:58;;;;;;;11.93;11.03;;;;;;;22.55;28.26;95818.06;6175730;28;102865;-70
2022/03/17 04:28:00;;;;;;;11.23;10.43;;;;;;;22.55;28.47;95834.84;6180110;28;102867;-66
2022/03/17 04:31:03;;;;;;;11.10;10.30;;;;;;;22.56;28.27;95841.75;6180448;28;103120;-70
2022/03/17 04:34:06;;;;;;;10.53;9.73;;;;;;;22.57;28.55;95847.88;6175046;28;103943;-69
2022/03/17 04:37:08;;;;;;;10.40;9.60;;;;;;;22.57;28.04;95851.31;6181175;28;102898;-69
2022/03/17 04:40:11;;;;;;;10.17;9.40;;;;;;;22.59;28.22;95856.38;6180570;28;103168;-69
2022/03/17 04:43:12;;;;;;;10.70;9.90;;;;;;;22.36;28.28;95855.28;6181060;28;102719;-70
2022/03/17 04:46:14;;;;;;;9.80;9.10;;;;;;;22.21;28.22;95850.88;6179148;28;102777;-68
2022/03/17 04:49:16;;;;;;;8.30;7.70;;;;;;;22.15;28.07;95847.44;6186359;28;103299;-69
2022/03/17 04:55:39;;;;;;;9.00;8.30;;;;;;;22.20;28.30;95859.94;6183523;28;102745;-70
2022/03/17 04:58:42;;;;;;;7.80;7.20;;;;;;;22.26;28.04;95863.34;6183272;28;102719;-74
2022/03/17 05:01:44;;;;;;;8.53;7.73;;;;;;;22.20;28.80;95870.59;6180136;28;103436;-74
2022/03/17 05:04:46;;;;;;;8.30;7.67;;;;;;;22.28;28.13;95877.16;6183330;28;103239;-71
2022/03/17 05:07:56;;;;;;;8.57;7.87;;;;;;;22.29;27.98;95873.41;6178855;28;103051;-67
2022/03/17 05:11:00;;;;;;;7.93;7.40;;;;;;;22.32;27.92;95878.19;6179695;28;103066;-71
2022/03/17 05:14:03;;;;;;;7.97;7.37;;;;;;;22.32;28.08;95878.97;6184345;28;102762;-71
2022/03/17 05:17:07;;;;;;;8.50;7.90;;;;;;;22.33;28.22;95882.44;6187165;28;103139;-73
2022/03/17 05:20:11;;;;;;;8.80;8.10;;;;;;;22.40;28.22;95880.25;6156680;28;103013;-78
2022/03/17 05:23:19;;;;;;;8.40;7.70;;;;;;;22.41;28.32;95877.31;6167221;28;103039;-71
2022/03/17 05:26:20;;;;;;;7.80;7.30;;;;;;;22.43;28.14;95888.47;6185726;28;102792;-73
2022/03/17 05:29:22;;;;;;;7.67;7.17;;;;;;;22.42;28.23;95886.88;6181590;28;102990;-74
2022/03/17 05:32:24;;;;;;;7.70;7.20;;;;;;;22.41;28.41;95887.16;6190916;28;102712;-73
2022/03/17 05:35:42;;;;;;;7.80;7.30;;;;;;;22.43;27.96;95900.97;6173219;28;102874;-73
2022/03/17 05:38:46;;;;;;;8.60;7.80;;;;;;;22.42;28.35;95900.19;6167051;28;102825;-71
2022/03/17 05:42:01;;;;;;;8.63;7.97;;;;;;;22.44;28.39;95907.91;6181436;28;103210;-74
2022/03/17 05:45:27;;;;;;;9.23;8.50;;;;;;;22.43;28.46;95911.63;6183813;28;103111;-72
2022/03/17 05:48:42;;;;;;;9.17;8.57;;;;;;;22.43;28.37;95917.75;6186962;28;103139;-74
2022/03/17 05:51:50;;;;;;;9.27;8.57;;;;;;;22.44;28.27;95931.88;6182503;28;103443;-72
2022/03/17 05:54:58;;;;;;;8.60;8.00;;;;;;;22.46;28.23;95929.72;6172243;28;102997;-74
2022/03/17 05:58:39;;;;;;;9.33;8.63;;;;;;;22.46;28.29;95933.16;6185420;28;102846;-74
2022/03/17 06:01:40;;;;;;;9.20;8.50;;;;;;;22.45;28.60;95936.91;6165676;28;103264;-71
2022/03/17 06:05:04;;;;;;;9.20;8.50;;;;;;;22.48;28.55;95947.00;6184850;28;102821;-70
2022/03/17 06:08:08;;;;;;;9.27;8.57;;;;;;;22.51;28.57;95951.78;6184429;28;102858;-69
2022/03/17 06:11:10;;;;;;;8.87;8.17;;;;;;;22.56;28.49;95948.28;6184529;28;102689;-70
2022/03/17 06:14:12;;;;;;;8.97;8.37;;;;;;;22.54;28.51;95952.31;6180497;28;103049;-71
2022/03/17 06:17:13;;;;;;;9.13;8.40;;;;;;;22.59;28.28;95952.25;6182840;28;102697;-70
2022/03/17 06:20:22;;;;;;;9.77;9.07;;;;;;;22.60;28.30;95959.16;6182018;28;102770;-76
2022/03/17 06:23:26;;;;;;;7.63;7.13;;;;;;;22.57;28.36;95960.50;6188428;28;102759;-75
2022/03/17 06:26:28;;;;;;;9.50;8.70;;;;;;;22.55;28.64;95965.34;6204789;28;103274;-74
2022/03/17 06:29:30;;;;;;;10.47;9.57;;;;;;;22.58;28.49;95971.97;6211435;28;102742;-72
2022/03/17 06:32:34;;;;;;;10.17;9.37;;;;;;;22.64;28.77;95970.84;6209915;28;103055;-73
2022/03/17 06:35:36;;;;;;;9.73;8.93;;;;;;;22.63;28.39;95974.56;6204043;28;103361;-70
2022/03/17 06:38:38;;;;;;;9.10;8.50;;;;;;;22.62;28.51;95978.31;6190403;28;103381;-70
2022/03/17 06:41:40;;;;;;;8.90;8.20;;;;;;;22.62;28.13;95984.44;6208600;28;102794;-69
2022/03/17 06:44:42;;;;;;;9.20;8.50;;;;;;;22.59;28.45;95978.88;6208500;28;102802;-71
2022/03/17 06:47:45;;;;;;;9.50;8.80;;;;;;;22.60;28.55;95986.59;6202323;28;104131;-69
2022/03/17 06:50:46;;;;;;;9.20;8.50;;;;;;;22.61;28.30;95982.84;6208008;28;103701;-70
2022/03/17 06:53:48;;;;;;;8.37;7.73;;;;;;;22.61;28.42;95998.03;6207679;28;102858;-67
2022/03/17 06:56:50;;;;;;;8.30;7.70;;;;;;;22.62;28.28;95999.63;6205251;28;102685;-66
2022/03/17 06:59:52;;;;;;;8.03;7.53;;;;;;;22.62;28.09;96002.28;6206717;28;103032;-71
2022/03/17 07:02:54;;;;;;;8.60;7.90;;;;;;;22.62;28.22;96004.94;6208905;28;103010;-70
2022/03/17 07:05:56;;;;;;;7.33;6.83;;;;;;;22.61;28.01;96008.69;6208997;28;103276;-71
2022/03/17 07:08:57;;;;;;;7.53;7.03;;;;;;;22.58;28.03;96015.38;6184579;28;102728;-69
2022/03/17 07:11:59;;;;;;;8.03;7.43;;;;;;;22.61;28.21;96022.00;6173414;28;102750;-69
2022/03/17 07:15:01;;;;;;;7.73;7.13;;;;;;;22.61;28.20;96024.66;6207267;28;102762;-69
2022/03/17 07:18:03;;;;;;;7.60;7.10;;;;;;;22.60;27.79;96029.19;6207331;28;103100;-70
2022/03/17 07:21:05;;;;;;;7.93;7.37;;;;;;;22.59;27.89;96026.81;6202709;28;103531;-68
2022/03/17 07:24:08;;;;;;;7.47;6.97;;;;;;;22.60;28.04;96031.88;6189473;28;102791;-73
2022/03/17 07:27:09;;;;;;;8.00;7.40;;;;;;;22.70;28.20;96023.81;6207697;28;102992;-67
2022/03/17 07:30:18;;;;;;;10.13;9.33;;;;;;;22.70;28.09;96029.13;6202323;28;102744;-66
2022/03/17 07:33:20;;;;;;;9.07;8.37;;;;;;;22.75;28.38;96030.97;6207489;28;102872;-66
2022/03/17 07:36:22;;;;;;;9.40;8.70;;;;;;;22.76;28.72;96033.34;6208211;28;103382;-68
2022/03/17 07:39:24;;;;;;;9.50;8.80;;;;;;;22.76;28.62;96037.88;6208127;28;103153;-67
2022/03/17 07:42:26;;;;;;;9.70;8.90;;;;;;;22.78;28.61;96049.03;6202142;28;102763;-66
2022/03/17 07:45:28;;;;;;;7.50;7.00;;;;;;;22.75;28.80;96041.63;6207545;28;102738;-72
2022/03/17 07:48:29;;;;;;;8.37;7.67;;;;;;;22.73;28.66;96046.44;6206648;28;102780;-71
2022/03/17 07:51:31;;;;;;;9.37;8.47;;;;;;;22.71;28.13;96049.38;6207409;28;102823;-70
2022/03/17 07:54:34;;;;;;;8.50;7.90;;;;;;;22.69;28.58;96048.06;6201658;28;103521;-69
2022/03/17 07:57:37;;;;;;;8.03;7.43;;;;;;;22.67;28.65;96043.00;6206786;28;102881;-71
2022/03/17 08:00:42;;;;;;;8.03;7.33;;;;;;;22.67;28.23;96050.19;6188544;28;102837;-69
2022/03/17 08:03:44;;;;;;;8.03;7.43;;;;;;;22.66;28.42;96045.94;6185005;28;104199;-71
2022/03/17 08:06:46;;;;;;;8.23;7.63;;;;;;;22.66;28.45;96048.59;6189690;28;103056;-70
2022/03/17 08:09:47;;;;;;;7.90;7.30;;;;;;;22.64;28.21;96048.88;6207153;28;102763;-65
2022/03/17 08:12:49;;;;;;;8.60;7.90;;;;;;;22.63;28.29;96055.28;6207960;28;102738;-72
2022/03/17 08:15:52;;;;;;;7.40;6.90;;;;;;;22.63;28.16;96043.84;6201749;28;102780;-70
2022/03/17 08:18:54;;;;;;;8.67;8.00;;;;;;;22.62;28.32;96052.91;6206589;28;103297;-71
2022/03/17 08:21:56;;;;;;;7.93;7.33;;;;;;;22.61;28.13;96046.78;6191364;28;102796;-69
2022/03/17 08:24:58;;;;;;;7.77;7.17;;;;;;;22.61;28.28;96048.66;6191808;28;102802;-69
2022/03/17 08:28:02;;;;;;;8.30;7.70;;;;;;;22.61;27.95;96045.97;6184833;28;103145;-69
2022/03/17 08:31:04;;;;;;;7.23;6.73;;;;;;;22.63;28.19;96054.47;6186095;28;103366;-70
2022/03/17 08:34:06;;;;;;;8.10;7.50;;;;;;;22.63;28.08;96051.81;6169332;28;102724;-67
2022/03/17 08:37:09;;;;;;;7.90;7.30;;;;;;;22.62;28.27;96051.03;6182191;28;102842;-68
2022/03/17 08:40:13;;;;;;;7.90;7.20;;;;;;;22.59;28.02;96056.13;6186730;28;102647;-68
2022/03/17 08:43:15;;;;;;;8.90;8.10;;;;;;;22.59;28.40;96053.44;6186072;28;102753;-69
2022/03/17 08:49:37;;;;;;;7.90;7.30;;;;;;;22.61;28.45;96052.09;6183754;28;103347;-68
2022/03/17 08:52:39;;;;;;;8.60;8.00;;;;;;;22.62;28.04;96063.56;6185174;28;103074;-70
2022/03/17 08:55:41;;;;;;;7.80;7.20;;;;;;;22.61;28.05;96051.31;6185628;28;102737;-71
2022/03/17 08:58:43;;;;;;;7.80;7.20;;;;;;;22.61;28.57;96062.75;6179909;28;102768;-69
2022/03/17 09:01:45;;;;;;;8.03;7.37;;;;;;;22.63;27.93;96060.59;6186117;28;103341;-71
2022/03/17 09:04:48;;;;;;;7.60;7.03;;;;;;;22.64;28.20;96062.19;6186961;28;103013;-68
2022/03/17 09:07:49;;;;;;;8.53;7.93;;;;;;;22.65;27.93;96068.31;6168064;28;103715;-69
2022/03/17 09:10:51;;;;;;;7.50;6.90;;;;;;;22.65;28.23;96068.31;6180050;28;102691;-69
2022/03/17 09:13:53;;;;;;;7.77;7.17;;;;;;;22.65;28.13;96063.78;6185330;28;103261;-69
2022/03/17 09:16:55;;;;;;;8.33;7.73;;;;;;;22.64;28.21;96078.19;6168202;28;102811;-68
2022/03/17 09:19:57;;;;;;;7.73;7.13;;;;;;;22.67;28.02;96079.50;6185203;28;102703;-67
2022/03/17 09:22:59;;;;;;;6.97;6.37;;;;;;;22.67;28.07;96077.63;6181611;28;103145;-69
2022/03/17 09:26:00;;;;;;;8.03;7.43;;;;;;;22.66;27.90;96081.34;6186481;28;102902;-68
2022/03/17 09:29:05;;;;;;;7.13;6.63;;;;;;;22.66;28.13;96085.88;6184761;28;103152;-69
2022/03/17 09:32:09;;;;;;;7.10;6.60;;;;;;;22.68;28.01;96091.75;6183472;28;102772;-69
2022/03/17 09:35:12;;;;;;;7.10;6.50;;;;;;;22.64;28.07;96088.84;6186428;28;103256;-69
2022/03/17 09:38:14;;;;;;;7.10;6.60;;;;;;;22.66;27.96;96105.34;6184785;28;102796;-68
2022/03/17 09:41:32;;;;;;;6.53;6.03;;;;;;;22.64;27.84;96099.50;6185886;28;102755;-70
2022/03/17 09:44:34;;;;;;;7.03;6.50;;;;;;;22.64;27.97;96093.38;6180411;28;104290;-70
2022/03/17 09:47:38;;;;;;;7.37;6.87;;;;;;;22.63;27.91;96108.56;6166639;28;102911;-72
2022/03/17 09:50:41;;;;;;;7.13;6.43;;;;;;;22.62;28.03;96112.28;6184365;28;102698;-69
2022/03/17 09:53:43;;;;;;;6.30;5.80;;;;;;;22.61;27.95;96105.38;6179920;28;103799;-71
2022/03/17 09:56:45;;;;;;;6.10;5.70;;;;;;;22.60;27.92;96109.13;6184902;28;103019;-70
2022/03/17 09:59:48;;;;;;;6.50;6.00;;;;;;;22.61;27.82;96118.69;6166583;28;102766;-69
2022/03/17 10:02:50;;;;;;;6.50;6.00;;;;;;;22.59;27.92;96118.19;6184676;28;103157;-70
2022/03/17 10:05:54;;;;;;;7.10;6.50;;;;;;;22.59;27.78;96112.84;6178799;28;102791;-69
2022/03/17 10:08:57;;;;;;;7.30;6.70;;;;;;;22.59;28.12;96120.03;6167071;28;103226;-70
2022/03/17 10:12:11;;;;;;;7.00;6.47;;;;;;;22.59;27.50;96122.72;6185438;28;102769;-68
2022/03/17 10:15:19;;;;;;;6.57;6.10;;;;;;;22.56;27.85;96129.38;6179447;28;102743;-69
2022/03/17 10:18:26;;;;;;;6.73;6.23;;;;;;;22.58;27.65;96129.09;6167001;28;102923;-69
2022/03/17 10:21:29;;;;;;;5.87;5.47;;;;;;;22.57;27.93;96127.50;6183443;28;103090;-71
2022/03/17 10:24:33;;;;;;;6.10;5.70;;;;;;;22.56;27.58;96128.59;6197184;28;103233;-71
2022/03/17 10:27:41;;;;;;;6.47;6.00;;;;;;;22.55;27.67;96132.31;6203580;28;102759;-68
2022/03/17 10:30:42;;;;;;;5.60;5.20;;;;;;;22.55;27.20;96127.78;6209601;28;103048;-69
2022/03/17 10:33:48;;;;;;;6.00;5.50;;;;;;;22.55;27.60;96133.13;6208743;28;102992;-69
2022/03/17 10:36:50;;;;;;;5.07;4.77;;;;;;;22.54;27.78;96120.09;6208309;28;103236;-72
2022/03/17 10:39:58;;;;;;;5.47;5.07;;;;;;;22.54;27.82;96130.72;6185272;28;103357;-69
2022/03/17 10:43:22;;;;;;;6.00;5.60;;;;;;;22.55;27.47;96127.00;6208404;28;102826;-69
2022/03/17 10:46:24;;;;;;;5.20;4.90;;;;;;;22.54;27.51;96130.72;6207894;28;102766;-70
2022/03/17 10:49:26;;;;;;;5.50;5.10;;;;;;;22.53;27.62;96124.63;6203041;28;102722;-70
2022/03/17 10:52:47;;;;;;;5.50;5.10;;;;;;;22.54;27.44;96123.53;6208157;28;103049;-69
2022/03/17 10:55:49;;;;;;;5.00;4.70;;;;;;;22.53;27.39;96132.59;6208546;28;103130;-70
2022/03/17 10:58:51;;;;;;;5.40;5.00;;;;;;;22.51;27.62;96126.75;6209087;28;103061;-69
2022/03/17 11:02:17;;;;;;;5.10;4.70;;;;;;;22.56;27.44;96128.59;6207916;28;102802;-69
2022/03/17 11:05:20;;;;;;;5.70;5.27;;;;;;;22.55;27.68;96133.13;6207520;28;102775;-70
2022/03/17 11:08:22;;;;;;;5.07;4.73;;;;;;;22.56;27.34;96128.59;6208340;28;102798;-69
2022/03/17 11:11:24;;;;;;;4.87;4.57;;;;;;;22.54;27.56;96126.19;6203208;28;103746;-69
2022/03/17 11:14:26;;;;;;;4.80;4.50;;;;;;;22.65;27.40;96127.72;6209195;28;103073;-71
2022/03/17 11:17:40;;;;;;;4.67;4.37;;;;;;;22.68;27.58;96127.19;6208953;28;102707;-70
2022/03/17 11:20:42;;;;;;;4.93;4.63;;;;;;;22.70;27.50;96119.72;6208334;28;103135;-69
2022/03/17 11:23:58;;;;;;;4.70;4.40;;;;;;;22.70;27.69;96125.03;6195454;28;102933;-70
2022/03/17 11:27:14;;;;;;;4.53;4.23;;;;;;;22.65;27.59;96127.72;6182922;28;102733;-72
2022/03/17 11:30:17;;;;;;;4.47;4.17;;;;;;;22.62;27.85;96133.59;6182977;28;103134;-71
2022/03/17 11:33:31;;;;;;;4.63;4.33;;;;;;;22.61;27.53;96131.22;6178069;28;103409;-70
2022/03/17 11:36:33;;;;;;;4.33;4.03;;;;;;;22.60;27.28;96124.28;6182317;28;103302;-69
2022/03/17 11:40:09;;;;;;;4.80;4.50;;;;;;;22.55;27.70;96119.81;6182947;28;103445;-70
2022/03/17 11:43:11;;;;;;;4.13;3.83;;;;;;;22.57;27.58;96119.53;6177759;28;102788;-70
2022/03/17 11:46:17;;;;;;;4.80;4.50;;;;;;;22.55;27.45;96117.13;6181825;28;103195;-71
2022/03/17 11:49:27;;;;;;;4.60;4.20;;;;;;;22.53;27.54;96108.63;6165687;28;103356;-70
2022/03/17 11:52:29;;;;;;;5.00;4.60;;;;;;;22.54;27.58;96109.44;6182819;28;103083;-71
2022/03/17 11:55:33;;;;;;;4.47;4.17;;;;;;;22.56;27.76;96109.94;6175942;28;102793;-70
2022/03/17 11:58:47;;;;;;;5.03;4.70;;;;;;;22.56;27.60;96109.94;6164907;28;102743;-71
2022/03/17 12:01:49;;;;;;;3.87;3.53;;;;;;;22.55;27.59;96111.03;6182571;28;103114;-71
2022/03/17 12:04:51;;;;;;;4.00;3.70;;;;;;;22.54;27.63;96110.22;6164542;28;103344;-71
2022/03/17 12:07:58;;;;;;;3.93;3.70;;;;;;;22.55;27.46;96111.03;6177345;28;102757;-72
2022/03/17 12:11:11;;;;;;;4.47;4.17;;;;;;;22.56;27.49;96117.94;6165652;28;103224;-71
2022/03/17 12:14:25;;;;;;;4.27;3.97;;;;;;;22.56;27.35;96117.94;6183305;28;102659;-70
2022/03/17 12:17:28;;;;;;;4.53;4.17;;;;;;;22.55;27.56;96121.66;6178104;28;102941;-70
2022/03/17 12:20:45;;;;;;;4.27;3.97;;;;;;;22.56;27.34;96123.25;6164395;28;102764;-70
2022/03/17 12:23:49;;;;;;;4.00;3.70;;;;;;;22.55;27.11;96124.34;6165679;28;102948;-70
2022/03/17 12:27:03;;;;;;;4.20;3.90;;;;;;;22.55;27.32;96127.78;6182039;28;102752;-70
2022/03/17 12:30:11;;;;;;;3.70;3.50;;;;;;;22.53;27.19;96129.94;6179220;28;103124;-70
2022/03/17 12:33:12;;;;;;;3.60;3.40;;;;;;;22.54;27.27;96125.41;6182467;28;102640;-69
2022/03/17 12:36:15;;;;;;;4.40;4.00;;;;;;;22.55;27.08;96132.31;6182300;28;102867;-69
2022/03/17 12:39:17;;;;;;;3.60;3.40;;;;;;;22.52;27.41;96131.81;6160043;28;104124;-70
2022/03/17 12:42:25;;;;;;;3.80;3.60;;;;;;;22.52;27.08;96139.00;6182230;28;102815;-70
2022/03/17 12:45:26;;;;;;;3.57;3.37;;;;;;;22.52;26.96;96144.31;6182757;28;103188;-68
2022/03/17 12:48:31;;;;;;;4.23;3.93;;;;;;;22.50;27.38;96136.59;6181892;28;102811;-70
2022/03/17 12:51:32;;;;;;;4.30;4.00;;;;;;;22.52;27.17;96147.00;6159331;28;102755;-70
2022/03/17 12:54:34;;;;;;;4.33;4.03;;;;;;;22.52;27.18;96139.00;6181700;28;102665;-69
2022/03/17 12:57:40;;;;;;;4.00;3.70;;;;;;;22.50;27.42;96133.91;6181453;28;102901;-71
2022/03/17 13:00:43;;;;;;;4.20;3.90;;;;;;;22.52;27.21;96139.00;6177846;28;103184;-70
2022/03/17 13:03:47;;;;;;;3.90;3.60;;;;;;;22.51;26.85;96143.53;6181189;28;103370;-71
2022/03/17 13:06:55;;;;;;;3.70;3.40;;;;;;;22.51;27.29;96137.41;6183666;28;102750;-68
2022/03/17 13:09:57;;;;;;;4.37;4.07;;;;;;;22.51;26.88;96140.88;6185744;28;102732;-69
2022/03/17 13:16:24;;;;;;;4.20;3.90;;;;;;;22.49;27.08;96145.66;6185370;28;102819;-69
2022/03/17 13:19:26;;;;;;;3.57;3.37;;;;;;;22.50;26.87;96147.25;6186118;28;102675;-70
2022/03/17 13:22:34;;;;;;;3.70;3.50;;;;;;;22.49;26.88;96150.97;6180956;28;103421;-69
2022/03/17 13:25:39;;;;;;;3.63;3.33;;;;;;;22.49;27.15;96145.66;6206970;28;102687;-70
2022/03/17 13:28:41;;;;;;;4.07;3.77;;;;;;;22.49;27.15;96150.97;6209761;28;102644;-69
2022/03/17 13:31:44;;;;;;;4.23;3.93;;;;;;;22.48;26.96;96149.38;6210509;28;102755;-70
2022/03/17 13:34:57;;;;;;;3.83;3.60;;;;;;;22.48;26.90;96153.91;6204859;28;103671;-69
2022/03/17 13:38:19;;;;;;;4.23;3.93;;;;;;;22.48;26.95;96157.38;6210308;28;103281;-70
2022/03/17 13:41:22;;;;;;;3.97;3.70;;;;;;;22.48;27.02;96152.03;6210002;28;102759;-70
2022/03/17 13:44:24;;;;;;;4.03;3.73;;;;;;;22.49;27.17;96155.50;6187986;28;103222;-69
2022/03/17 13:47:28;;;;;;;4.27;3.97;;;;;;;22.47;26.98;96153.13;6208001;28;102877;-69
2022/03/17 13:50:32;;;;;;;4.17;3.87;;;;;;;22.47;27.10;96153.13;6210212;28;103904;-69
2022/03/17 13:53:38;;;;;;;4.43;4.13;;;;;;;22.47;26.90;96158.44;6209783;28;102711;-69
2022/03/17 13:56:40;;;;;;;4.17;3.87;;;;;;;22.46;26.80;96159.50;6203452;28;102738;-69
2022/03/17 13:59:42;;;;;;;4.67;4.37;;;;;;;22.47;27.19;96158.44;6208655;28;102840;-69
2022/03/17 14:02:44;;;;;;;4.17;3.87;;;;;;;22.46;27.14;96162.19;6191186;28;103232;-71
2022/03/17 14:06:09;;;;;;;3.90;3.70;;;;;;;22.47;26.97;96160.31;6209206;28;102991;-70
2022/03/17 14:09:13;;;;;;;4.20;3.90;;;;;;;22.45;26.90;96162.47;6186309;28;102973;-69
2022/03/17 14:12:16;;;;;;;4.10;3.80;;;;;;;22.46;26.80;96167.50;6209340;28;102878;-69
2022/03/17 14:15:18;;;;;;;4.30;4.00;;;;;;;22.46;26.97;96169.38;6191525;28;102735;-69
2022/03/17 14:18:20;;;;;;;4.20;3.90;;;;;;;22.44;26.87;96168.84;6202134;28;103045;-68
2022/03/17 14:21:24;;;;;;;4.50;4.20;;;;;;;22.38;26.92;96165.44;6210052;28;102700;-70
2022/03/17 14:24:28;;;;;;;4.00;3.80;;;;;;;22.43;27.00;96173.38;6196474;28;102677;-69